Time;durP1;ratioP1;P1;durP2;ratioP2;P2;SDS_P1;SDS_P2;PMS_P1;PMS_P2;Temp;Humidity;BMP_temperature;BMP_pressure;BME280_temperature;BME280_humidity;BME280_pressure;Samples;Min_cycle;Max_cycle;Signal;HPM_P1;HPM_P2
2023/12/27 00:00:43;;;;;;;6.95;1.90;;;5.30;99.90;;;;;;5034994;28;20208;-71
2023/12/27 00:03:10;;;;;;;7.57;2.55;;;5.30;99.90;;;;;;5028015;28;20212;-73
2023/12/27 00:05:37;;;;;;;9.18;2.10;;;5.30;99.90;;;;;;5035705;28;20266;-72
2023/12/27 00:08:03;;;;;;;11.38;2.47;;;5.20;99.90;;;;;;5035061;28;20653;-73
2023/12/27 00:10:30;;;;;;;8.60;2.88;;;5.20;99.90;;;;;;5035361;28;20200;-73
2023/12/27 00:12:57;;;;;;;9.98;2.47;;;5.20;99.90;;;;;;5027031;28;20205;-71
2023/12/27 00:15:24;;;;;;;5.72;2.55;;;5.20;99.90;;;;;;5032194;28;20208;-70
2023/12/27 00:17:52;;;;;;;6.25;2.50;;;5.10;99.90;;;;;;5033944;28;20627;-73
2023/12/27 00:20:20;;;;;;;10.32;3.38;;;5.10;99.90;;;;;;5035074;28;20623;-73
2023/12/27 00:22:47;;;;;;;7.60;2.17;;;5.20;99.90;;;;;;5035891;28;20271;-71
2023/12/27 00:25:14;;;;;;;6.88;2.30;;;5.20;99.90;;;;;;5029170;28;20282;-72
2023/12/27 00:27:41;;;;;;;7.40;2.63;;;5.10;99.90;;;;;;5030467;28;20720;-71
2023/12/27 00:30:08;;;;;;;11.48;3.72;;;5.10;99.90;;;;;;5035642;28;20255;-74
2023/12/27 00:32:35;;;;;;;13.50;2.40;;;5.10;99.90;;;;;;5035628;28;20205;-72
2023/12/27 00:35:04;;;;;;;17.52;3.38;;;5.00;99.90;;;;;;5041285;28;20204;-74
2023/12/27 00:37:32;;;;;;;8.98;3.65;;;5.00;99.90;;;;;;5036119;28;20279;-73
2023/12/27 00:39:59;;;;;;;11.73;4.28;;;5.00;99.90;;;;;;5038499;28;20621;-72
2023/12/27 00:42:26;;;;;;;10.52;2.55;;;5.00;99.90;;;;;;5034963;28;20300;-73
2023/12/27 00:44:53;;;;;;;8.45;3.50;;;5.10;99.90;;;;;;5028739;28;20202;-73
2023/12/27 00:47:19;;;;;;;13.23;2.70;;;5.10;99.90;;;;;;5033667;28;20268;-72
2023/12/27 00:49:46;;;;;;;14.10;4.03;;;5.10;99.90;;;;;;5030859;28;20217;-72
2023/12/27 00:52:15;;;;;;;4.90;2.35;;;5.10;99.90;;;;;;5035350;28;20598;-71
2023/12/27 00:54:42;;;;;;;10.18;2.60;;;5.00;99.90;;;;;;5028513;28;20252;-71
2023/12/27 00:57:09;;;;;;;8.23;2.25;;;5.00;99.90;;;;;;5032207;28;20286;-72
2023/12/27 00:59:35;;;;;;;13.60;4.75;;;5.00;99.90;;;;;;5030616;28;20217;-71
2023/12/27 01:02:02;;;;;;;11.88;2.78;;;5.00;99.90;;;;;;5030422;28;20565;-74
2023/12/27 01:04:29;;;;;;;13.05;2.33;;;5.10;99.90;;;;;;5033992;28;20209;-72
2023/12/27 01:06:56;;;;;;;8.45;3.67;;;5.20;99.90;;;;;;5031826;28;20274;-73
2023/12/27 01:09:25;;;;;;;13.35;3.20;;;5.10;99.90;;;;;;5030244;28;20204;-71
2023/12/27 01:11:52;;;;;;;4.68;2.83;;;5.10;99.90;;;;;;5027884;28;20201;-72
2023/12/27 01:14:20;;;;;;;13.00;3.30;;;5.10;99.90;;;;;;5032147;28;20205;-73
2023/12/27 01:16:46;;;;;;;8.70;2.45;;;5.10;99.90;;;;;;5030411;28;20729;-72
2023/12/27 01:19:14;;;;;;;12.10;3.80;;;5.10;99.90;;;;;;5025847;28;20201;-71
2023/12/27 01:21:41;;;;;;;9.93;2.78;;;5.10;99.90;;;;;;5033712;28;20273;-71
2023/12/27 01:24:07;;;;;;;12.35;2.70;;;5.10;99.90;;;;;;5033959;28;20208;-71
2023/12/27 01:26:36;;;;;;;12.10;4.28;;;5.00;99.90;;;;;;5027681;28;20296;-72
2023/12/27 01:29:03;;;;;;;13.40;2.80;;;5.10;99.90;;;;;;5033210;28;20204;-73
2023/12/27 01:31:30;;;;;;;7.63;2.58;;;5.00;99.90;;;;;;5022824;28;20202;-73
2023/12/27 01:33:56;;;;;;;19.20;3.10;;;5.00;99.90;;;;;;5028260;28;20293;-71
2023/12/27 01:36:23;;;;;;;14.07;4.00;;;5.00;99.90;;;;;;5025479;28;20209;-71
2023/12/27 01:38:50;;;;;;;10.82;1.98;;;5.00;99.90;;;;;;5031727;28;20639;-71
2023/12/27 01:41:17;;;;;;;8.13;3.50;;;4.90;99.90;;;;;;5033827;28;20583;-72
2023/12/27 01:43:46;;;;;;;10.18;2.53;;;4.90;99.90;;;;;;5032937;28;20204;-72
2023/12/27 01:46:13;;;;;;;14.00;2.42;;;4.90;99.90;;;;;;5029336;28;20236;-73
2023/12/27 01:48:41;;;;;;;7.25;3.00;;;4.90;99.90;;;;;;5027877;28;20216;-72
2023/12/27 01:51:09;;;;;;;9.15;2.63;;;4.90;99.90;;;;;;5029793;28;20227;-72
2023/12/27 01:53:36;;;;;;;12.35;2.75;;;4.90;99.90;;;;;;5027692;28;20355;-72
2023/12/27 01:56:03;;;;;;;4.55;1.50;;;4.80;99.90;;;;;;5031045;28;20197;-72
2023/12/27 01:58:31;;;;;;;13.90;3.60;;;4.90;99.90;;;;;;5024195;28;20382;-72
2023/12/27 02:00:59;;;;;;;6.93;2.10;;;4.80;99.90;;;;;;5029611;28;20258;-72
2023/12/27 02:03:27;;;;;;;11.52;2.42;;;4.80;99.90;;;;;;5027876;28;20260;-71
2023/12/27 02:05:56;;;;;;;12.15;3.20;;;4.80;99.90;;;;;;5029508;28;20655;-72
2023/12/27 02:08:24;;;;;;;23.95;3.45;;;4.80;99.90;;;;;;5030076;28;20224;-71
2023/12/27 02:10:51;;;;;;;13.27;2.70;;;4.80;99.90;;;;;;5030599;28;20637;-72
2023/12/27 02:13:19;;;;;;;10.50;3.08;;;4.80;99.90;;;;;;5027809;28;20382;-72
2023/12/27 02:15:47;;;;;;;11.50;2.50;;;4.70;99.90;;;;;;5025157;28;20206;-72
2023/12/27 02:18:15;;;;;;;6.13;3.25;;;4.70;99.90;;;;;;5032069;28;20343;-73
2023/12/27 02:20:43;;;;;;;6.75;2.60;;;4.70;99.90;;;;;;5034757;28;20680;-73
2023/12/27 02:23:14;;;;;;;6.60;2.10;;;4.70;99.90;;;;;;5026784;28;20544;-72
2023/12/27 02:25:43;;;;;;;9.43;2.92;;;4.70;99.90;;;;;;5032804;28;20205;-72
2023/12/27 02:28:10;;;;;;;6.95;2.85;;;4.70;99.90;;;;;;5026840;28;20259;-72
2023/12/27 02:30:38;;;;;;;12.25;2.80;;;4.70;99.90;;;;;;5026280;28;20226;-72
2023/12/27 02:33:05;;;;;;;8.55;2.20;;;4.80;99.90;;;;;;5027971;28;20211;-72
2023/12/27 02:35:32;;;;;;;7.55;2.88;;;4.70;99.90;;;;;;5026339;28;20205;-73
2023/12/27 02:38:00;;;;;;;7.13;2.30;;;4.70;99.90;;;;;;5027662;28;20279;-73
2023/12/27 02:40:27;;;;;;;11.30;2.63;;;4.70;99.90;;;;;;5028179;28;20209;-73
2023/12/27 02:42:55;;;;;;;11.30;2.65;;;4.80;99.90;;;;;;5028114;28;20668;-72
2023/12/27 02:45:22;;;;;;;8.55;2.33;;;4.80;99.90;;;;;;5027884;28;20232;-72
2023/12/27 02:47:49;;;;;;;9.23;3.10;;;4.80;99.90;;;;;;5021163;28;20260;-71
2023/12/27 02:50:16;;;;;;;12.57;2.35;;;4.80;99.90;;;;;;5029634;28;20571;-71
2023/12/27 02:52:43;;;;;;;8.00;2.80;;;4.80;99.90;;;;;;5026358;28;20257;-72
2023/12/27 02:55:10;;;;;;;4.45;2.20;;;4.90;99.90;;;;;;5029155;28;20240;-72
2023/12/27 02:57:37;;;;;;;14.13;1.88;;;4.90;99.90;;;;;;5027217;28;20239;-71
2023/12/27 03:00:07;;;;;;;9.73;2.90;;;4.90;99.90;;;;;;5021178;28;20260;-72
2023/12/27 03:02:34;;;;;;;9.27;2.55;;;4.90;99.90;;;;;;5028409;28;20583;-72
2023/12/27 03:05:02;;;;;;;5.40;2.38;;;4.90;99.90;;;;;;5024407;28;20791;-72
2023/12/27 03:07:30;;;;;;;9.15;3.00;;;4.90;99.90;;;;;;5028207;28;20232;-71
2023/12/27 03:09:57;;;;;;;5.22;1.70;;;4.90;99.90;;;;;;5030456;28;20200;-71
2023/12/27 03:12:24;;;;;;;11.02;3.22;;;4.90;99.90;;;;;;5030785;28;20201;-72
2023/12/27 03:14:51;;;;;;;27.10;3.70;;;4.80;99.90;;;;;;5026631;28;20663;-72
2023/12/27 03:17:19;;;;;;;19.52;4.05;;;4.80;99.90;;;;;;5021429;28;20225;-72
2023/12/27 03:19:46;;;;;;;6.90;2.40;;;4.80;99.90;;;;;;5034479;28;20212;-73
2023/12/27 03:22:13;;;;;;;12.43;2.35;;;4.80;99.90;;;;;;5024795;28;20296;-71
2023/12/27 03:24:40;;;;;;;9.85;2.50;;;4.70;99.90;;;;;;5029241;28;20205;-72
2023/12/27 03:27:07;;;;;;;8.05;2.58;;;4.70;99.90;;;;;;5025250;28;20564;-72
2023/12/27 03:29:34;;;;;;;10.57;2.63;;;4.60;99.90;;;;;;5035307;28;20303;-73
2023/12/27 03:32:02;;;;;;;7.85;2.50;;;4.60;99.90;;;;;;5030106;28;20729;-72
2023/12/27 03:34:30;;;;;;;7.32;1.85;;;4.60;99.90;;;;;;5024428;28;20664;-71
2023/12/27 03:36:57;;;;;;;7.82;4.57;;;4.50;99.90;;;;;;5028079;28;20256;-71
2023/12/27 03:39:24;;;;;;;10.65;3.03;;;4.50;99.90;;;;;;5038354;28;20626;-72
2023/12/27 03:41:51;;;;;;;21.77;3.10;;;4.50;99.90;;;;;;5033702;28;20212;-72
2023/12/27 03:44:18;;;;;;;6.55;2.47;;;4.40;99.90;;;;;;5024870;28;20204;-72
2023/12/27 03:46:45;;;;;;;7.95;2.45;;;4.40;99.90;;;;;;5025487;28;20224;-72
2023/12/27 03:49:12;;;;;;;16.73;3.45;;;4.40;99.90;;;;;;5027586;28;20221;-72
2023/12/27 03:51:40;;;;;;;7.55;2.50;;;4.40;99.90;;;;;;5025568;28;20208;-72
2023/12/27 03:54:07;;;;;;;7.97;2.22;;;4.40;99.90;;;;;;5028612;28;20262;-73
2023/12/27 03:56:34;;;;;;;7.90;2.92;;;4.40;99.90;;;;;;5021463;28;20290;-72
2023/12/27 03:59:03;;;;;;;7.43;1.83;;;4.40;99.90;;;;;;5028866;28;20212;-72
2023/12/27 04:01:30;;;;;;;6.13;2.15;;;4.50;99.90;;;;;;5033786;28;20295;-72
2023/12/27 04:03:57;;;;;;;13.77;3.55;;;4.40;99.90;;;;;;5028668;28;20204;-72
2023/12/27 04:06:24;;;;;;;9.38;3.33;;;4.40;99.90;;;;;;5035097;28;20235;-73
2023/12/27 04:08:52;;;;;;;10.27;2.70;;;4.40;99.90;;;;;;5025243;28;20284;-73
2023/12/27 04:11:19;;;;;;;8.95;3.28;;;4.50;99.90;;;;;;5030535;28;20211;-73
2023/12/27 04:13:46;;;;;;;5.90;4.53;;;4.40;99.90;;;;;;5028008;28;20204;-72
2023/12/27 04:16:13;;;;;;;8.93;2.63;;;4.40;99.90;;;;;;5024283;28;20297;-73
2023/12/27 04:18:40;;;;;;;10.15;3.00;;;4.40;99.90;;;;;;5031152;28;20200;-72
2023/12/27 04:21:07;;;;;;;9.50;2.63;;;4.40;99.90;;;;;;5036680;28;20205;-73
2023/12/27 04:23:34;;;;;;;10.75;2.65;;;4.30;99.90;;;;;;5024181;28;20209;-73
2023/12/27 04:26:03;;;;;;;3.40;2.00;;;4.30;99.90;;;;;;5025814;28;20233;-73
2023/12/27 04:28:31;;;;;;;14.65;3.05;;;4.20;99.90;;;;;;5027195;28;20221;-73
2023/12/27 04:30:58;;;;;;;8.88;3.03;;;4.20;99.90;;;;;;5033677;28;20585;-72
2023/12/27 04:33:26;;;;;;;11.20;4.07;;;4.10;99.90;;;;;;5026311;28;20251;-73
2023/12/27 04:35:53;;;;;;;7.03;3.10;;;4.00;99.90;;;;;;5030726;28;20204;-73
2023/12/27 04:38:20;;;;;;;5.88;2.75;;;4.00;99.90;;;;;;5024430;28;20769;-73
2023/12/27 04:40:49;;;;;;;9.50;2.85;;;4.10;99.90;;;;;;5037245;28;20210;-71
2023/12/27 04:43:17;;;;;;;7.05;2.97;;;3.90;99.90;;;;;;5027215;28;20224;-72
2023/12/27 04:45:44;;;;;;;6.25;2.85;;;3.90;99.90;;;;;;5031014;28;20224;-71
2023/12/27 04:48:11;;;;;;;14.38;3.95;;;3.90;99.90;;;;;;5026137;28;20703;-72
2023/12/27 04:50:38;;;;;;;13.90;2.67;;;3.90;99.90;;;;;;5028884;28;20578;-72
2023/12/27 04:53:05;;;;;;;9.82;2.50;;;3.90;99.90;;;;;;5025216;28;20202;-71
2023/12/27 04:55:32;;;;;;;10.15;3.30;;;3.90;99.90;;;;;;5031153;28;20675;-72
2023/12/27 04:57:58;;;;;;;7.88;3.08;;;3.90;99.90;;;;;;5027722;28;20332;-71
2023/12/27 05:00:27;;;;;;;13.32;4.00;;;4.00;99.90;;;;;;5031813;28;20624;-72
2023/12/27 05:02:54;;;;;;;17.83;3.67;;;4.00;99.90;;;;;;5034542;28;20205;-71
2023/12/27 05:05:21;;;;;;;11.63;3.95;;;4.00;99.90;;;;;;5026734;28;20251;-72
2023/12/27 05:07:48;;;;;;;11.73;3.28;;;4.00;99.90;;;;;;5033282;28;20282;-73
2023/12/27 05:10:15;;;;;;;6.82;3.20;;;4.00;99.90;;;;;;5034929;28;20205;-73
2023/12/27 05:12:42;;;;;;;15.13;4.25;;;4.00;99.90;;;;;;5033900;28;20475;-70
2023/12/27 05:15:09;;;;;;;5.95;3.15;;;4.10;99.90;;;;;;5035072;28;20240;-72
2023/12/27 05:17:38;;;;;;;7.55;3.30;;;4.10;99.90;;;;;;5032263;28;20624;-72
2023/12/27 05:20:06;;;;;;;13.30;4.35;;;4.10;99.90;;;;;;5037248;28;20646;-72
2023/12/27 05:22:34;;;;;;;11.98;5.90;;;4.00;99.90;;;;;;5032500;28;20263;-72
2023/12/27 05:25:01;;;;;;;5.97;2.50;;;4.00;99.90;;;;;;5032908;28;20217;-73
2023/12/27 05:27:28;;;;;;;16.13;4.20;;;4.00;99.90;;;;;;5030556;28;20720;-72
2023/12/27 05:29:56;;;;;;;13.48;4.00;;;4.00;99.90;;;;;;5040863;28;20286;-73
2023/12/27 05:32:22;;;;;;;12.35;4.25;;;4.10;99.90;;;;;;5033103;28;20303;-73
2023/12/27 05:34:52;;;;;;;18.60;3.95;;;4.10;99.90;;;;;;5032111;28;20671;-74
2023/12/27 05:37:19;;;;;;;7.05;3.55;;;4.10;99.90;;;;;;5027951;28;20220;-72
2023/12/27 05:39:46;;;;;;;12.05;4.13;;;4.10;99.90;;;;;;5023999;28;20229;-72
2023/12/27 05:42:14;;;;;;;14.13;4.07;;;4.20;99.90;;;;;;5031006;28;20613;-72
2023/12/27 05:44:41;;;;;;;11.35;3.58;;;4.20;99.90;;;;;;5032125;28;20292;-73
2023/12/27 05:47:08;;;;;;;11.88;5.20;;;4.10;99.90;;;;;;5033299;28;20264;-73
2023/12/27 05:49:35;;;;;;;5.75;4.00;;;4.20;99.90;;;;;;5031928;28;20703;-72
2023/12/27 05:52:04;;;;;;;9.30;3.80;;;4.20;99.90;;;;;;5030956;28;20258;-72
2023/12/27 05:54:31;;;;;;;20.63;4.47;;;4.20;99.90;;;;;;5033018;28;20213;-73
2023/12/27 05:56:58;;;;;;;12.27;4.53;;;4.20;99.90;;;;;;5032543;28;20760;-72
2023/12/27 05:59:25;;;;;;;8.70;4.43;;;4.10;99.90;;;;;;5033559;28;20258;-72
2023/12/27 06:01:52;;;;;;;11.82;4.00;;;4.10;99.90;;;;;;5037422;28;20232;-72
2023/12/27 06:04:20;;;;;;;9.23;4.32;;;4.10;99.90;;;;;;5032032;28;20326;-74
2023/12/27 06:06:49;;;;;;;16.38;5.00;;;4.00;99.90;;;;;;5023103;28;20221;-74
2023/12/27 06:09:17;;;;;;;13.85;4.15;;;4.00;99.90;;;;;;5032190;28;20224;-72
2023/12/27 06:11:44;;;;;;;6.43;4.15;;;4.00;99.90;;;;;;5028853;28;20232;-73
2023/12/27 06:14:11;;;;;;;17.13;5.00;;;3.90;99.90;;;;;;5027612;28;20262;-71
2023/12/27 06:16:38;;;;;;;7.97;3.50;;;3.90;99.90;;;;;;5032118;28;20270;-71
2023/12/27 06:19:05;;;;;;;9.52;4.18;;;3.90;99.90;;;;;;5033697;28;20299;-71
2023/12/27 06:21:32;;;;;;;21.60;5.95;;;4.00;99.90;;;;;;5037206;28;20262;-71
2023/12/27 06:23:59;;;;;;;8.10;4.32;;;3.90;99.90;;;;;;5027346;28;20672;-71
2023/12/27 06:26:27;;;;;;;15.38;5.65;;;3.90;99.90;;;;;;5026431;28;20559;-73
2023/12/27 06:28:54;;;;;;;11.27;4.82;;;3.90;99.90;;;;;;5032033;28;20251;-73
2023/12/27 06:31:21;;;;;;;13.68;5.60;;;3.90;99.90;;;;;;5028336;28;20263;-72
2023/12/27 06:33:48;;;;;;;13.68;6.00;;;3.90;99.90;;;;;;5028247;28;20753;-70
2023/12/27 06:36:17;;;;;;;10.82;4.30;;;4.00;99.90;;;;;;5029997;28;20204;-71
2023/12/27 06:38:46;;;;;;;16.67;5.90;;;4.00;99.90;;;;;;5026869;28;20651;-71
2023/12/27 06:41:13;;;;;;;16.45;6.25;;;4.00;99.90;;;;;;5032012;28;20201;-72
2023/12/27 06:43:43;;;;;;;21.58;5.80;;;3.90;99.90;;;;;;5031166;28;20288;-72
2023/12/27 06:46:10;;;;;;;14.65;7.13;;;3.90;99.90;;;;;;5026958;28;20567;-72
2023/12/27 06:48:39;;;;;;;13.75;5.25;;;3.80;99.90;;;;;;5026027;28;20639;-71
2023/12/27 06:51:06;;;;;;;20.33;6.40;;;3.90;99.90;;;;;;5026882;28;20616;-72
2023/12/27 06:53:34;;;;;;;12.02;5.43;;;3.80;99.90;;;;;;5030164;28;20283;-72
2023/12/27 06:56:01;;;;;;;20.70;5.25;;;3.70;99.90;;;;;;5032451;28;20208;-73
2023/12/27 06:58:29;;;;;;;11.25;4.55;;;3.70;99.90;;;;;;5024211;28;20320;-74
2023/12/27 07:00:57;;;;;;;18.33;6.03;;;3.80;99.90;;;;;;5029122;28;20201;-72
2023/12/27 07:03:25;;;;;;;15.95;5.20;;;3.70;99.90;;;;;;5025185;28;20197;-73
2023/12/27 07:05:52;;;;;;;13.60;4.53;;;3.70;99.90;;;;;;5025963;28;20215;-72
2023/12/27 07:08:19;;;;;;;11.07;5.18;;;3.90;99.90;;;;;;5026422;28;20252;-71
2023/12/27 07:10:46;;;;;;;15.82;6.60;;;3.80;99.90;;;;;;5024302;28;20317;-73
2023/12/27 07:13:13;;;;;;;13.10;6.80;;;3.80;99.90;;;;;;5029836;28;20672;-73
2023/12/27 07:15:40;;;;;;;13.93;5.82;;;3.80;99.90;;;;;;5026908;28;20659;-71
2023/12/27 07:18:08;;;;;;;15.23;5.22;;;3.80;99.90;;;;;;5027659;28;20224;-72
2023/12/27 07:20:35;;;;;;;10.90;5.10;;;3.80;99.90;;;;;;5029946;28;20205;-70
2023/12/27 07:23:03;;;;;;;17.33;5.47;;;3.80;99.90;;;;;;5024538;28;20213;-71
2023/12/27 07:25:30;;;;;;;9.20;4.60;;;3.70;99.90;;;;;;5034583;28;20208;-72
2023/12/27 07:27:57;;;;;;;9.85;4.45;;;3.70;99.90;;;;;;5026537;28;20229;-73
2023/12/27 07:30:23;;;;;;;15.30;6.00;;;3.80;99.90;;;;;;5029351;28;20260;-73
2023/12/27 07:32:51;;;;;;;10.40;4.80;;;3.90;99.90;;;;;;5024431;28;20589;-71
2023/12/27 07:35:20;;;;;;;12.82;5.10;;;3.90;99.90;;;;;;5025559;28;20209;-74
2023/12/27 07:37:47;;;;;;;13.85;5.82;;;3.90;99.90;;;;;;5026326;28;20279;-73
2023/12/27 07:40:16;;;;;;;19.08;8.80;;;3.90;99.90;;;;;;5031321;28;20224;-73
2023/12/27 07:42:43;;;;;;;11.05;5.43;;;3.90;99.90;;;;;;5030233;28;20718;-71
2023/12/27 07:45:10;;;;;;;14.20;7.10;;;3.90;99.90;;;;;;5032068;28;20208;-71
2023/12/27 07:47:37;;;;;;;19.65;6.68;;;3.90;99.90;;;;;;5029370;28;20286;-71
2023/12/27 07:50:05;;;;;;;11.63;4.93;;;3.90;99.90;;;;;;5023906;28;20307;-72
2023/12/27 07:52:33;;;;;;;11.85;5.45;;;4.00;99.90;;;;;;5024432;28;20237;-71
2023/12/27 07:55:00;;;;;;;10.65;5.35;;;4.00;99.90;;;;;;5027823;28;20291;-71
2023/12/27 07:57:27;;;;;;;17.08;6.18;;;4.00;99.90;;;;;;5025922;28;20699;-72
2023/12/27 07:59:57;;;;;;;19.98;5.20;;;4.10;99.90;;;;;;5022484;28;20291;-72
2023/12/27 08:02:24;;;;;;;14.27;5.32;;;4.10;99.90;;;;;;5027210;28;20266;-72
2023/12/27 08:04:51;;;;;;;7.80;5.03;;;4.20;99.90;;;;;;5031316;28;20224;-71
2023/12/27 08:07:19;;;;;;;10.68;5.30;;;4.20;99.90;;;;;;5030307;28;20282;-72
2023/12/27 08:09:47;;;;;;;14.52;5.38;;;4.20;99.90;;;;;;5027717;28;20317;-73
2023/12/27 08:12:14;;;;;;;12.90;4.85;;;4.20;99.90;;;;;;5024073;28;20205;-73
2023/12/27 08:14:41;;;;;;;9.45;3.60;;;4.30;99.90;;;;;;5031646;28;20213;-73
2023/12/27 08:17:08;;;;;;;8.43;5.28;;;4.30;99.90;;;;;;5028250;28;20225;-73
2023/12/27 08:19:35;;;;;;;13.48;4.65;;;4.30;99.90;;;;;;5027968;28;20283;-71
2023/12/27 08:22:03;;;;;;;13.38;6.60;;;4.40;99.90;;;;;;5028022;28;20698;-72
2023/12/27 08:24:30;;;;;;;12.05;4.20;;;4.40;99.90;;;;;;5029544;28;20204;-72
2023/12/27 08:27:00;;;;;;;8.60;5.95;;;4.40;99.90;;;;;;5029406;28;20651;-72
2023/12/27 08:29:27;;;;;;;13.77;5.07;;;4.40;99.90;;;;;;5031352;28;20252;-72
2023/12/27 08:31:53;;;;;;;12.85;7.10;;;4.40;99.90;;;;;;5038593;28;20258;-74
2023/12/27 08:34:21;;;;;;;9.13;4.07;;;4.40;99.90;;;;;;5033842;28;20571;-73
2023/12/27 08:36:48;;;;;;;16.42;6.80;;;4.50;99.90;;;;;;5034761;28;20271;-71
2023/12/27 08:39:16;;;;;;;8.40;4.78;;;4.60;99.90;;;;;;5028253;28;20686;-72
2023/12/27 08:41:43;;;;;;;10.88;5.13;;;4.60;99.90;;;;;;5038313;28;20244;-72
2023/12/27 08:44:12;;;;;;;13.55;5.30;;;4.80;99.90;;;;;;5029077;28;20294;-73
2023/12/27 08:46:39;;;;;;;8.35;4.55;;;4.90;99.90;;;;;;5034086;28;20225;-72
2023/12/27 08:49:06;;;;;;;10.13;4.68;;;4.90;99.90;;;;;;5034773;28;20204;-73
2023/12/27 08:51:34;;;;;;;11.02;6.50;;;4.90;99.90;;;;;;5032886;28;20212;-71
2023/12/27 08:54:02;;;;;;;12.30;4.88;;;5.00;99.90;;;;;;5031701;28;20294;-73
2023/12/27 08:56:29;;;;;;;9.27;5.68;;;5.00;99.90;;;;;;5025192;28;20256;-71
2023/12/27 08:58:56;;;;;;;9.85;4.93;;;5.10;99.90;;;;;;5023697;28;20217;-72
2023/12/27 09:01:24;;;;;;;10.55;4.95;;;5.20;99.90;;;;;;5031789;28;20200;-72
2023/12/27 09:03:51;;;;;;;11.85;4.88;;;5.20;99.90;;;;;;5024710;28;20240;-72
2023/12/27 09:06:18;;;;;;;12.80;4.45;;;5.30;99.90;;;;;;5031410;28;20301;-71
2023/12/27 09:08:45;;;;;;;7.85;4.05;;;5.30;99.90;;;;;;5026976;28;20205;-72
2023/12/27 09:11:12;;;;;;;6.82;5.13;;;5.40;99.90;;;;;;5034621;28;20259;-71
2023/12/27 09:13:39;;;;;;;10.70;5.80;;;5.40;99.90;;;;;;5030416;28;20213;-73
2023/12/27 09:16:06;;;;;;;11.65;4.63;;;5.50;99.90;;;;;;5023457;28;20214;-72
2023/12/27 09:18:34;;;;;;;11.75;4.88;;;5.50;99.90;;;;;;5032722;28;20205;-71
2023/12/27 09:21:02;;;;;;;13.90;6.05;;;5.50;99.90;;;;;;5025755;28;20734;-70
2023/12/27 09:23:29;;;;;;;7.55;5.90;;;5.60;99.90;;;;;;5025095;28;20259;-71
2023/12/27 09:25:56;;;;;;;6.30;4.50;;;5.60;99.90;;;;;;5033428;28;20197;-72
2023/12/27 09:28:25;;;;;;;10.60;4.65;;;5.60;99.90;;;;;;5030247;28;20235;-71
2023/12/27 09:30:52;;;;;;;10.95;5.38;;;5.60;99.90;;;;;;5032042;28;20259;-74
2023/12/27 09:33:19;;;;;;;10.07;5.05;;;5.70;99.90;;;;;;5027305;28;20271;-72
2023/12/27 09:35:48;;;;;;;11.63;5.28;;;5.60;99.90;;;;;;5026520;28;20682;-74
2023/12/27 09:38:15;;;;;;;5.72;4.10;;;5.70;99.90;;;;;;5024120;28;20233;-72
2023/12/27 09:40:42;;;;;;;11.38;6.68;;;5.70;99.90;;;;;;5035588;28;20209;-73
2023/12/27 09:43:10;;;;;;;16.58;6.97;;;5.70;99.90;;;;;;5031659;28;20255;-71
2023/12/27 09:45:38;;;;;;;9.57;5.40;;;5.60;99.90;;;;;;5033817;28;20239;-72
2023/12/27 09:48:07;;;;;;;10.48;6.28;;;5.60;99.90;;;;;;5026488;28;20213;-71
2023/12/27 09:50:36;;;;;;;11.82;4.60;;;5.70;99.90;;;;;;5035702;28;20248;-72
2023/12/27 09:53:05;;;;;;;10.15;4.82;;;5.80;99.90;;;;;;5032293;28;20237;-72
2023/12/27 09:55:33;;;;;;;12.45;5.85;;;5.80;99.90;;;;;;5035194;28;20549;-72
2023/12/27 09:58:00;;;;;;;11.57;5.88;;;5.80;99.90;;;;;;5032200;28;20229;-73
2023/12/27 10:00:29;;;;;;;13.32;6.80;;;5.80;99.90;;;;;;5035457;28;20278;-71
2023/12/27 10:02:59;;;;;;;8.25;4.80;;;5.80;99.90;;;;;;5032841;28;20200;-71
2023/12/27 10:05:31;;;;;;;12.93;5.53;;;5.80;99.90;;;;;;5029786;28;20663;-71
2023/12/27 10:08:00;;;;;;;11.70;5.30;;;5.80;99.90;;;;;;5029898;28;20232;-72
2023/12/27 10:10:30;;;;;;;10.02;4.97;;;6.20;99.90;;;;;;5034321;28;20682;-71
2023/12/27 10:13:02;;;;;;;11.95;6.20;;;6.40;99.90;;;;;;5029526;28;20232;-71
2023/12/27 10:15:29;;;;;;;11.75;5.57;;;6.50;99.90;;;;;;5024692;28;20208;-73
2023/12/27 10:17:56;;;;;;;12.35;5.38;;;6.60;99.90;;;;;;5029325;28;20229;-71
2023/12/27 10:20:36;;;;;;;19.33;5.78;;;6.60;99.90;;;;;;5026952;28;20271;-71
2023/12/27 10:23:04;;;;;;;15.75;5.05;;;6.50;99.90;;;;;;5026562;28;20205;-72
2023/12/27 10:25:33;;;;;;;12.18;5.78;;;6.60;99.90;;;;;;5028314;28;20240;-72
2023/12/27 10:28:00;;;;;;;7.95;4.15;;;6.70;99.90;;;;;;5031197;28;20275;-73
2023/12/27 10:30:27;;;;;;;10.68;5.97;;;6.70;99.90;;;;;;5030926;28;20220;-72
2023/12/27 10:33:01;;;;;;;13.32;5.20;;;6.80;99.90;;;;;;5032484;28;20208;-72
2023/12/27 10:35:28;;;;;;;12.13;4.60;;;6.90;99.90;;;;;;5022280;28;20734;-72
2023/12/27 10:38:03;;;;;;;13.80;3.95;;;7.20;99.90;;;;;;5022712;28;20720;-70
2023/12/27 10:40:30;;;;;;;18.58;4.07;;;7.50;99.90;;;;;;5032716;28;20219;-74
2023/12/27 10:42:59;;;;;;;11.45;4.90;;;7.50;99.90;;;;;;5028861;28;20236;-70
2023/12/27 10:45:25;;;;;;;7.53;4.00;;;7.50;99.90;;;;;;5032765;28;20204;-73
2023/12/27 10:47:59;;;;;;;18.25;4.93;;;7.50;99.90;;;;;;5028949;28;20212;-73
2023/12/27 10:50:27;;;;;;;11.27;3.78;;;7.60;99.90;;;;;;5033382;28;20244;-71
2023/12/27 10:53:02;;;;;;;9.32;3.50;;;7.40;99.90;;;;;;5022098;28;20734;-74
2023/12/27 10:55:30;;;;;;;19.90;4.00;;;7.40;99.90;;;;;;5030989;28;20208;-73
2023/12/27 10:58:00;;;;;;;14.15;4.45;;;7.60;99.90;;;;;;5027958;28;20278;-74
2023/12/27 11:00:29;;;;;;;8.63;3.90;;;7.90;99.90;;;;;;5029659;28;20647;-73
2023/12/27 11:02:58;;;;;;;13.50;4.38;;;7.80;99.90;;;;;;5029855;28;20236;-73
2023/12/27 11:05:27;;;;;;;9.90;6.03;;;7.70;99.90;;;;;;5029739;28;21150;-74
2023/12/27 11:07:55;;;;;;;9.77;3.80;;;7.90;99.90;;;;;;5027454;28;20228;-71
2023/12/27 11:10:24;;;;;;;23.38;5.40;;;7.80;99.90;;;;;;5025826;28;20266;-73
2023/12/27 11:12:52;;;;;;;11.32;3.97;;;7.70;99.90;;;;;;5033588;28;20225;-72
2023/12/27 11:15:22;;;;;;;15.20;4.70;;;7.70;99.90;;;;;;5027176;28;20237;-74
2023/12/27 11:17:49;;;;;;;10.30;4.68;;;7.60;99.90;;;;;;5029014;28;20274;-72
2023/12/27 11:20:20;;;;;;;8.73;3.33;;;7.60;99.90;;;;;;5026539;28;20295;-74
2023/12/27 11:22:47;;;;;;;10.68;5.32;;;7.70;99.90;;;;;;5028713;28;20277;-73
2023/12/27 11:25:14;;;;;;;17.80;6.90;;;7.80;99.90;;;;;;5030903;28;20267;-73
2023/12/27 11:27:42;;;;;;;17.92;3.78;;;8.00;99.90;;;;;;5030290;28;20738;-72
2023/12/27 11:30:11;;;;;;;10.90;3.92;;;8.20;99.90;;;;;;5031522;28;20230;-73
2023/12/27 11:32:41;;;;;;;14.13;4.40;;;8.10;99.90;;;;;;5025553;28;20279;-71
2023/12/27 11:35:10;;;;;;;6.68;3.40;;;8.00;99.90;;;;;;5031871;28;20287;-72
2023/12/27 11:37:41;;;;;;;12.48;3.75;;;7.90;99.90;;;;;;5026124;28;20786;-72
2023/12/27 11:40:10;;;;;;;8.30;4.35;;;7.70;99.90;;;;;;5028075;28;20687;-72
2023/12/27 11:42:39;;;;;;;9.68;4.72;;;7.60;99.90;;;;;;5029093;28;20353;-72
2023/12/27 11:45:07;;;;;;;11.35;4.63;;;7.60;99.90;;;;;;5027707;28;20300;-73
2023/12/27 11:47:34;;;;;;;9.25;4.40;;;7.50;99.90;;;;;;5026259;28;20690;-73
2023/12/27 11:50:21;;;;;;;8.48;4.43;;;7.70;99.90;;;;;;5020504;28;20240;-73
2023/12/27 11:52:52;;;;;;;9.95;3.83;;;7.80;99.90;;;;;;5026948;28;20232;-73
2023/12/27 11:55:21;;;;;;;8.93;4.35;;;7.90;99.90;;;;;;5024747;28;20664;-71
2023/12/27 11:57:57;;;;;;;17.98;6.78;;;7.90;99.90;;;;;;5029453;28;20262;-72
2023/12/27 12:00:26;;;;;;;13.85;5.22;;;7.80;99.90;;;;;;5027871;28;20632;-74
2023/12/27 12:02:58;;;;;;;9.25;3.33;;;7.80;99.90;;;;;;5040641;28;20300;-72
2023/12/27 12:05:49;;;;;;;10.18;5.15;;;7.80;99.90;;;;;;5031693;28;20223;-72
2023/12/27 12:08:26;;;;;;;8.88;3.83;;;7.70;99.90;;;;;;5027066;28;20307;-73
2023/12/27 12:11:10;;;;;;;12.68;4.53;;;7.70;99.90;;;;;;5013177;28;20220;-73
2023/12/27 12:13:39;;;;;;;20.95;5.20;;;7.70;99.90;;;;;;5030151;28;20205;-71
2023/12/27 12:16:07;;;;;;;9.05;5.68;;;7.70;99.90;;;;;;5021017;28;20296;-72
2023/12/27 12:18:35;;;;;;;7.60;3.75;;;7.80;99.90;;;;;;5027649;28;20304;-70
2023/12/27 12:21:03;;;;;;;8.70;3.70;;;7.70;99.90;;;;;;5032473;28;20243;-75
2023/12/27 12:23:31;;;;;;;7.18;3.50;;;7.70;99.90;;;;;;5031747;28;20755;-72
2023/12/27 12:26:00;;;;;;;10.20;4.60;;;7.80;99.90;;;;;;5029131;28;20345;-72
2023/12/27 12:28:27;;;;;;;10.05;5.20;;;7.90;99.90;;;;;;5034887;28;21822;-73
2023/12/27 12:30:56;;;;;;;8.10;3.72;;;7.90;99.90;;;;;;5023189;28;20312;-72
2023/12/27 12:33:24;;;;;;;10.57;5.00;;;7.90;99.90;;;;;;5023821;28;20292;-72
2023/12/27 12:35:53;;;;;;;6.03;3.78;;;8.00;99.90;;;;;;5030716;28;20282;-73
2023/12/27 12:38:22;;;;;;;12.20;3.97;;;8.00;99.90;;;;;;5025411;28;20715;-73
2023/12/27 12:40:49;;;;;;;8.48;3.10;;;7.90;99.90;;;;;;5032974;28;20208;-72
2023/12/27 12:43:16;;;;;;;6.40;3.38;;;7.70;99.90;;;;;;5034757;28;20701;-72
2023/12/27 12:45:43;;;;;;;10.63;4.10;;;7.50;99.90;;;;;;5033452;28;20552;-73
2023/12/27 12:48:11;;;;;;;9.32;3.15;;;7.40;99.90;;;;;;5031287;28;20655;-72
2023/12/27 12:50:38;;;;;;;11.15;3.15;;;7.30;99.90;;;;;;5034404;28;20641;-72
2023/12/27 12:53:16;;;;;;;9.80;4.60;;;7.20;99.90;;;;;;5034584;28;20204;-73